Time;durP1;ratioP1;P1;durP2;ratioP2;P2;SDS_P1;SDS_P2;PMS_P1;PMS_P2;Temp;Humidity;BMP_temperature;BMP_pressure;BME280_temperature;BME280_humidity;BME280_pressure;Samples;Min_cycle;Max_cycle;Signal;HPM_P1;HPM_P2
2022/03/08 00:02:12;;;;;;;4.97;3.88;;;3.00;98.90;;;;;;5078737;28;20192;-44
2022/03/08 00:04:39;;;;;;;7.50;4.47;;;3.00;99.20;;;;;;5078583;28;20199;-44
2022/03/08 00:07:06;;;;;;;7.53;5.00;;;3.00;99.10;;;;;;5078089;28;20294;-44
2022/03/08 00:09:33;;;;;;;8.88;6.10;;;3.10;99.40;;;;;;5076273;28;20225;-44
2022/03/08 00:12:00;;;;;;;9.32;5.18;;;2.80;99.20;;;;;;5074183;28;20211;-44
2022/03/08 00:14:26;;;;;;;7.00;4.72;;;3.00;99.30;;;;;;5073223;28;20295;-44
2022/03/08 00:16:54;;;;;;;6.07;5.40;;;2.90;99.50;;;;;;5073559;28;20222;-44
2022/03/08 00:19:21;;;;;;;8.60;5.07;;;3.00;99.60;;;;;;5072352;28;20226;-44
2022/03/08 00:21:48;;;;;;;9.85;5.50;;;3.00;99.70;;;;;;5073444;28;20195;-44
2022/03/08 00:24:16;;;;;;;12.57;5.15;;;2.80;99.70;;;;;;5073219;28;20204;-44
2022/03/08 00:26:43;;;;;;;9.55;5.28;;;2.80;99.70;;;;;;5072851;28;20227;-44
2022/03/08 00:29:10;;;;;;;6.55;4.40;;;2.60;99.80;;;;;;5073014;28;20572;-43
2022/03/08 00:31:37;;;;;;;8.90;4.60;;;2.80;99.90;;;;;;5071505;28;20248;-45
2022/03/08 00:34:06;;;;;;;8.38;5.78;;;2.70;99.90;;;;;;5072982;28;20223;-44
2022/03/08 00:36:33;;;;;;;8.10;5.25;;;2.70;99.90;;;;;;5073259;28;20251;-45
2022/03/08 00:39:00;;;;;;;7.03;4.93;;;2.60;99.90;;;;;;5072300;28;20202;-44
2022/03/08 00:41:27;;;;;;;7.22;5.05;;;;;;;;;;5071494;28;20218;-45
2022/03/08 00:43:54;;;;;;;7.50;4.00;;;2.60;99.90;;;;;;5073044;28;20202;-44
2022/03/08 00:46:21;;;;;;;8.35;4.45;;;2.60;99.90;;;;;;5072600;28;20251;-45
2022/03/08 00:48:48;;;;;;;7.90;4.40;;;2.70;99.90;;;;;;5072617;28;20187;-45
2022/03/08 00:51:16;;;;;;;7.35;4.90;;;;;;;;;;5071591;28;20207;-44
2022/03/08 00:53:45;;;;;;;7.63;4.63;;;2.60;99.90;;;;;;5071108;28;20230;-44
2022/03/08 00:56:11;;;;;;;9.32;5.32;;;2.60;99.90;;;;;;5072423;28;20222;-44
2022/03/08 00:58:41;;;;;;;7.22;4.47;;;2.50;99.90;;;;;;5071272;28;20237;-45
2022/03/08 01:01:08;;;;;;;14.07;4.90;;;2.80;99.90;;;;;;5072762;28;20260;-45
2022/03/08 01:03:35;;;;;;;9.27;4.90;;;2.60;99.90;;;;;;5072595;28;20199;-44
2022/03/08 01:06:02;;;;;;;6.35;5.07;;;2.60;99.90;;;;;;5072124;28;20231;-44
2022/03/08 01:08:30;;;;;;;6.90;5.20;;;2.40;99.90;;;;;;5072165;28;20266;-44
2022/03/08 01:10:56;;;;;;;8.77;5.60;;;2.60;99.90;;;;;;5071036;28;20199;-43
2022/03/08 01:13:24;;;;;;;9.13;4.80;;;2.50;99.90;;;;;;5072497;28;20321;-44
2022/03/08 01:15:50;;;;;;;10.52;5.00;;;2.60;99.90;;;;;;5072179;28;20584;-44
2022/03/08 01:18:17;;;;;;;8.35;5.63;;;2.50;99.90;;;;;;5072227;28;20659;-43
2022/03/08 01:20:43;;;;;;;10.32;5.07;;;2.70;99.90;;;;;;5072111;28;20195;-45
2022/03/08 01:23:10;;;;;;;8.95;5.03;;;2.70;99.90;;;;;;5072486;28;20567;-44
2022/03/08 01:25:40;;;;;;;9.15;5.72;;;2.80;99.90;;;;;;5071958;28;20215;-44
2022/03/08 01:28:07;;;;;;;6.72;4.45;;;2.60;99.90;;;;;;5072105;28;20667;-43
2022/03/08 01:30:34;;;;;;;8.32;5.60;;;;;;;;;;5071808;28;20187;-44
2022/03/08 01:33:01;;;;;;;11.48;5.30;;;2.30;99.90;;;;;;5071933;28;20294;-44
2022/03/08 01:35:28;;;;;;;12.82;5.20;;;2.60;99.90;;;;;;5072035;28;20191;-44
2022/03/08 01:37:54;;;;;;;8.65;5.00;;;2.40;99.90;;;;;;5070768;28;20204;-44
2022/03/08 01:40:22;;;;;;;9.05;5.70;;;2.40;99.90;;;;;;5070327;28;20198;-44
2022/03/08 01:42:51;;;;;;;12.68;6.63;;;2.50;99.90;;;;;;5067335;28;20245;-43
2022/03/08 01:45:20;;;;;;;7.43;5.65;;;;;;;;;;5051766;28;20200;-45
2022/03/08 01:47:47;;;;;;;9.40;5.85;;;2.40;99.90;;;;;;5051850;28;20207;-44
2022/03/08 01:50:15;;;;;;;8.68;6.25;;;2.50;99.90;;;;;;5051369;28;20187;-43
2022/03/08 01:52:42;;;;;;;11.43;6.05;;;2.50;99.90;;;;;;5051898;28;20216;-43
2022/03/08 01:55:10;;;;;;;9.07;6.10;;;2.30;99.90;;;;;;5051841;28;20207;-44
2022/03/08 01:57:37;;;;;;;11.18;6.05;;;2.30;99.90;;;;;;5051932;28;20665;-45
2022/03/08 02:00:07;;;;;;;11.40;6.45;;;;;;;;;;5051591;28;20192;-44
2022/03/08 02:02:39;;;;;;;10.35;6.13;;;2.20;99.90;;;;;;5051952;28;20581;-43
2022/03/08 02:05:07;;;;;;;9.93;6.70;;;2.10;99.90;;;;;;5051661;28;20656;-44
2022/03/08 02:07:34;;;;;;;9.93;6.40;;;2.20;99.90;;;;;;5051451;28;20227;-44
2022/03/08 02:10:00;;;;;;;12.45;6.55;;;2.20;99.90;;;;;;5051393;28;20200;-43
2022/03/08 02:12:27;;;;;;;9.32;5.88;;;2.40;99.90;;;;;;5051785;28;20196;-44
2022/03/08 02:14:54;;;;;;;10.13;6.65;;;2.20;99.90;;;;;;5051432;28;20192;-44
2022/03/08 02:17:22;;;;;;;14.73;7.10;;;2.00;99.90;;;;;;5051709;28;20222;-43
2022/03/08 02:19:49;;;;;;;9.18;6.68;;;2.10;99.90;;;;;;5051270;28;20200;-43
2022/03/08 02:22:16;;;;;;;9.85;6.07;;;2.10;99.90;;;;;;5051503;28;20215;-44
2022/03/08 02:24:43;;;;;;;7.93;5.90;;;;;;;;;;5051681;28;20211;-44
2022/03/08 02:27:12;;;;;;;5.78;5.18;;;2.20;99.90;;;;;;5051757;28;20614;-45
2022/03/08 02:29:39;;;;;;;9.90;6.05;;;2.00;99.90;;;;;;5051353;28;20218;-44
2022/03/08 02:32:06;;;;;;;11.18;5.75;;;2.30;99.90;;;;;;5051935;28;20607;-45
2022/03/08 02:34:33;;;;;;;8.05;5.95;;;2.30;99.90;;;;;;5051698;28;20228;-44
2022/03/08 02:37:04;;;;;;;8.93;6.05;;;2.10;99.90;;;;;;5052006;28;20688;-44
2022/03/08 02:39:51;;;;;;;10.05;6.53;;;2.30;99.90;;;;;;5051142;28;20211;-44
2022/03/08 02:42:18;;;;;;;10.75;6.45;;;2.30;99.90;;;;;;5061982;28;20624;-44
2022/03/08 02:44:44;;;;;;;7.03;5.90;;;2.20;99.90;;;;;;5075026;28;20183;-44
2022/03/08 02:47:11;;;;;;;8.32;5.38;;;;;;;;;;5075183;28;20696;-43
2022/03/08 02:49:38;;;;;;;8.77;5.72;;;2.20;99.90;;;;;;5074934;28;20218;-43
2022/03/08 02:52:05;;;;;;;10.57;6.70;;;2.20;99.90;;;;;;5075270;28;20206;-43
2022/03/08 02:54:32;;;;;;;10.38;6.75;;;2.10;99.90;;;;;;5074849;28;20215;-45
2022/03/08 02:57:00;;;;;;;9.57;6.18;;;2.20;99.90;;;;;;5075240;28;20217;-44
2022/03/08 02:59:27;;;;;;;8.18;6.50;;;;;;;;;;5077271;28;20247;-45
2022/03/08 03:01:54;;;;;;;10.10;5.97;;;;;;;;;;5077057;28;20232;-44
2022/03/08 03:04:21;;;;;;;7.80;6.60;;;;;;;;;;5078376;28;20226;-44
2022/03/08 03:06:47;;;;;;;10.38;6.60;;;2.20;99.90;;;;;;5078045;28;20565;-44
2022/03/08 03:09:14;;;;;;;9.25;5.63;;;2.20;99.90;;;;;;5078498;28;20199;-44
2022/03/08 03:11:41;;;;;;;7.50;6.75;;;2.10;99.90;;;;;;5078370;28;20210;-44
2022/03/08 03:14:09;;;;;;;8.80;6.00;;;2.00;99.90;;;;;;5077699;28;20249;-44
2022/03/08 03:16:36;;;;;;;9.05;6.07;;;2.10;99.90;;;;;;5076082;28;20227;-44
2022/03/08 03:19:02;;;;;;;9.13;5.85;;;1.80;99.90;;;;;;5074793;28;20207;-44
2022/03/08 03:21:29;;;;;;;7.72;6.22;;;2.00;99.90;;;;;;5074887;28;20567;-44
2022/03/08 03:23:55;;;;;;;7.50;5.90;;;1.80;99.90;;;;;;5074986;28;20187;-43
2022/03/08 03:26:23;;;;;;;11.23;6.35;;;;;;;;;;5074561;28;20218;-43
2022/03/08 03:28:50;;;;;;;8.65;5.40;;;2.10;99.90;;;;;;5074492;28;20287;-43
2022/03/08 03:31:18;;;;;;;13.20;6.53;;;1.90;99.90;;;;;;5075375;28;20202;-44
2022/03/08 03:33:46;;;;;;;9.43;6.78;;;1.90;99.90;;;;;;5075005;28;20207;-43
2022/03/08 03:36:12;;;;;;;12.23;6.43;;;1.70;99.90;;;;;;5076716;28;20554;-44
2022/03/08 03:38:39;;;;;;;9.45;6.05;;;1.70;99.90;;;;;;5077344;28;20195;-45
2022/03/08 03:41:05;;;;;;;8.70;5.47;;;1.60;99.90;;;;;;5076784;28;20214;-44
2022/03/08 03:43:32;;;;;;;10.00;7.00;;;1.80;99.90;;;;;;5078249;28;20594;-44
2022/03/08 03:45:59;;;;;;;8.00;5.50;;;1.80;99.90;;;;;;5077311;28;20730;-44
2022/03/08 03:48:27;;;;;;;9.63;6.18;;;;;;;;;;5077796;28;20195;-47
2022/03/08 03:50:54;;;;;;;9.85;6.43;;;1.80;99.90;;;;;;5077902;28;20198;-44
2022/03/08 03:53:20;;;;;;;7.55;6.18;;;1.70;99.90;;;;;;5075845;28;20256;-43
2022/03/08 03:55:47;;;;;;;8.73;6.32;;;1.80;99.90;;;;;;5073310;28;20222;-44
2022/03/08 03:58:15;;;;;;;11.35;6.00;;;1.70;99.90;;;;;;5073937;28;20191;-45
2022/03/08 04:00:42;;;;;;;10.43;6.50;;;1.20;99.90;;;;;;5073345;28;20200;-44
2022/03/08 04:03:09;;;;;;;8.98;6.60;;;;;;;;;;5072239;28;20224;-44
2022/03/08 04:05:37;;;;;;;20.27;7.20;;;1.80;99.90;;;;;;5073879;28;20215;-43
2022/03/08 04:08:05;;;;;;;13.38;6.78;;;1.60;99.90;;;;;;5073706;28;20210;-44
2022/03/08 04:10:32;;;;;;;12.68;6.63;;;;;;;;;;5073385;28;20206;-44
2022/03/08 04:12:58;;;;;;;8.80;6.25;;;1.60;99.90;;;;;;5073589;28;20209;-44
2022/03/08 04:15:26;;;;;;;9.88;5.90;;;1.50;99.90;;;;;;5074231;28;20204;-43
2022/03/08 04:17:52;;;;;;;8.43;5.78;;;1.80;99.90;;;;;;5073688;28;20675;-44
2022/03/08 04:20:19;;;;;;;22.60;14.60;;;1.60;99.90;;;;;;5073263;28;20199;-44
2022/03/08 04:22:47;;;;;;;13.07;7.68;;;1.40;99.90;;;;;;5073566;28;20196;-44
2022/03/08 04:25:14;;;;;;;8.02;6.38;;;1.80;99.90;;;;;;5073321;28;20183;-43
2022/03/08 04:27:40;;;;;;;8.50;5.72;;;1.60;99.90;;;;;;5073425;28;20199;-43
2022/03/08 04:30:09;;;;;;;12.88;7.20;;;1.60;99.90;;;;;;5072841;28;20191;-43
2022/03/08 04:32:35;;;;;;;9.45;6.55;;;1.60;99.90;;;;;;5073745;28;20278;-43
2022/03/08 04:35:02;;;;;;;9.80;6.75;;;1.50;99.90;;;;;;5073251;28;20695;-43
2022/03/08 04:37:29;;;;;;;10.43;6.40;;;1.40;99.90;;;;;;5073826;28;20267;-44
2022/03/08 04:39:57;;;;;;;8.85;6.40;;;1.50;99.90;;;;;;5071640;28;20210;-43
2022/03/08 04:42:24;;;;;;;13.18;6.50;;;1.60;99.90;;;;;;5073216;28;20811;-44
2022/03/08 04:44:51;;;;;;;10.90;6.28;;;1.40;99.90;;;;;;5073236;28;20194;-44
2022/03/08 04:47:17;;;;;;;9.77;6.68;;;1.20;99.90;;;;;;5073859;28;20226;-42
2022/03/08 04:49:44;;;;;;;12.10;6.88;;;1.30;99.90;;;;;;5074540;28;20682;-42
2022/03/08 04:52:11;;;;;;;17.20;6.32;;;;;;;;;;5073646;28;20567;-44
2022/03/08 04:54:38;;;;;;;14.13;7.22;;;1.40;99.90;;;;;;5073426;28;20223;-43
2022/03/08 04:57:07;;;;;;;10.07;6.80;;;1.40;99.90;;;;;;5073135;28;20222;-44
2022/03/08 04:59:33;;;;;;;8.60;5.70;;;1.30;99.90;;;;;;5073257;28;20282;-43
2022/03/08 05:02:00;;;;;;;9.02;6.28;;;1.30;99.90;;;;;;5073631;28;20672;-44
2022/03/08 05:04:26;;;;;;;10.15;6.47;;;1.50;99.90;;;;;;5074353;28;20282;-43
2022/03/08 05:06:53;;;;;;;9.13;6.05;;;1.50;99.90;;;;;;5074095;28;20225;-44
2022/03/08 05:09:20;;;;;;;8.35;6.05;;;1.50;99.90;;;;;;5072114;28;20610;-43
2022/03/08 05:11:46;;;;;;;10.30;6.30;;;1.30;99.90;;;;;;5072510;28;20199;-42
2022/03/08 05:14:14;;;;;;;10.45;6.20;;;1.30;99.90;;;;;;5072318;28;20223;-41
2022/03/08 05:16:41;;;;;;;10.27;6.70;;;;;;;;;;5072193;28;20220;-41
2022/03/08 05:19:10;;;;;;;6.82;5.53;;;1.40;99.90;;;;;;5072334;28;20199;-42
2022/03/08 05:21:37;;;;;;;9.32;6.40;;;1.20;99.90;;;;;;5072645;28;20195;-42
2022/03/08 05:24:04;;;;;;;9.45;6.60;;;1.30;99.90;;;;;;5072815;28;20207;-42
2022/03/08 05:26:31;;;;;;;10.18;6.00;;;1.40;99.90;;;;;;5072424;28;20221;-42
2022/03/08 05:28:57;;;;;;;8.98;6.50;;;1.30;99.90;;;;;;5072643;28;20202;-42
2022/03/08 05:31:25;;;;;;;12.07;6.72;;;1.20;99.90;;;;;;5072303;28;20195;-42
2022/03/08 05:33:52;;;;;;;8.40;6.35;;;1.40;99.90;;;;;;5072253;28;20278;-44
2022/03/08 05:36:18;;;;;;;5.72;5.00;;;1.50;99.90;;;;;;5072396;28;20219;-41
2022/03/08 05:38:45;;;;;;;10.57;7.10;;;1.30;99.90;;;;;;5070800;28;20654;-42
2022/03/08 05:41:12;;;;;;;11.60;6.60;;;1.40;99.90;;;;;;5070491;28;20272;-42
2022/03/08 05:43:38;;;;;;;9.35;6.10;;;1.50;99.90;;;;;;5072226;28;20698;-42
2022/03/08 05:46:05;;;;;;;10.55;7.72;;;1.30;99.90;;;;;;5071968;28;20636;-41
2022/03/08 05:48:33;;;;;;;10.30;6.10;;;1.30;99.90;;;;;;5071742;28;20199;-42
2022/03/08 05:51:00;;;;;;;9.98;6.18;;;;;;;;;;5071879;28;20200;-42
2022/03/08 05:53:27;;;;;;;9.82;6.07;;;;;;;;;;5071828;28;20218;-43
2022/03/08 05:55:54;;;;;;;7.30;5.50;;;1.50;99.90;;;;;;5071685;28;20219;-43
2022/03/08 05:58:20;;;;;;;8.35;5.82;;;1.40;99.90;;;;;;5071726;28;20195;-44
2022/03/08 06:00:47;;;;;;;8.68;6.13;;;1.20;99.90;;;;;;5071856;28;20199;-43
2022/03/08 06:03:14;;;;;;;10.32;6.10;;;1.30;99.90;;;;;;5071933;28;20199;-43
2022/03/08 06:05:42;;;;;;;8.38;5.82;;;1.30;99.90;;;;;;5071729;28;20564;-43
2022/03/08 06:08:09;;;;;;;13.85;7.30;;;1.30;99.90;;;;;;5071661;28;20203;-44
2022/03/08 06:10:36;;;;;;;13.93;6.60;;;1.20;99.90;;;;;;5071166;28;20556;-42
2022/03/08 06:13:03;;;;;;;10.07;6.60;;;1.50;99.90;;;;;;5071555;28;20326;-42
2022/03/08 06:15:29;;;;;;;11.68;6.05;;;1.50;99.90;;;;;;5071522;28;20706;-43
2022/03/08 06:17:56;;;;;;;15.48;6.40;;;1.50;99.90;;;;;;5072840;28;20195;-42
2022/03/08 06:20:22;;;;;;;7.40;5.93;;;1.50;99.90;;;;;;5075109;28;20286;-42
2022/03/08 06:22:50;;;;;;;10.13;6.60;;;1.60;99.90;;;;;;5075286;28;20202;-44
2022/03/08 06:25:18;;;;;;;7.38;5.72;;;1.60;99.90;;;;;;5075309;28;20278;-45
2022/03/08 06:27:44;;;;;;;10.48;6.05;;;1.80;99.90;;;;;;5075444;28;20199;-43
2022/03/08 06:30:12;;;;;;;11.73;6.97;;;1.90;99.90;;;;;;5074816;28;20688;-45
2022/03/08 06:32:38;;;;;;;9.75;6.15;;;1.90;99.90;;;;;;5075298;28;20210;-42
2022/03/08 06:35:06;;;;;;;11.15;6.05;;;1.80;99.90;;;;;;5075034;28;20277;-42
2022/03/08 06:37:33;;;;;;;9.05;6.15;;;1.80;99.90;;;;;;5074926;28;20218;-42
2022/03/08 06:40:01;;;;;;;11.55;5.60;;;2.00;99.90;;;;;;5074674;28;20244;-43
2022/03/08 06:42:28;;;;;;;10.45;7.13;;;2.10;99.90;;;;;;5074957;28;20249;-44
2022/03/08 06:44:54;;;;;;;8.68;5.80;;;2.20;99.90;;;;;;5075351;28;20207;-43
2022/03/08 06:47:21;;;;;;;12.20;7.85;;;2.30;99.90;;;;;;5074921;28;20668;-42
2022/03/08 06:49:48;;;;;;;15.95;7.80;;;2.60;99.90;;;;;;5074314;28;20199;-44
2022/03/08 06:52:14;;;;;;;13.85;8.18;;;2.30;99.90;;;;;;5074944;28;20660;-43
2022/03/08 06:54:41;;;;;;;14.35;9.95;;;2.60;99.90;;;;;;5074524;28;20250;-42
2022/03/08 06:57:09;;;;;;;15.98;8.57;;;2.60;99.90;;;;;;5074610;28;20242;-43
2022/03/08 06:59:36;;;;;;;12.23;8.77;;;2.60;99.90;;;;;;5074459;28;20528;-42
2022/03/08 07:02:03;;;;;;;16.60;9.30;;;2.60;99.90;;;;;;5074769;28;20204;-42
2022/03/08 07:04:30;;;;;;;11.85;9.38;;;2.70;99.90;;;;;;5074417;28;20612;-43
2022/03/08 07:06:57;;;;;;;12.00;8.63;;;;;;;;;;5074295;28;20227;-43
2022/03/08 07:09:24;;;;;;;13.32;8.82;;;2.60;99.90;;;;;;5074047;28;20203;-43
2022/03/08 07:11:52;;;;;;;13.35;7.80;;;2.70;99.90;;;;;;5074539;28;20199;-43
2022/03/08 07:14:20;;;;;;;15.52;8.38;;;2.70;99.90;;;;;;5074275;28;20211;-45
2022/03/08 07:16:47;;;;;;;14.15;8.75;;;2.90;99.90;;;;;;5074141;28;20234;-44
2022/03/08 07:19:15;;;;;;;12.77;8.63;;;3.00;99.90;;;;;;5074176;28;20211;-42
2022/03/08 07:21:42;;;;;;;12.88;8.65;;;2.90;99.90;;;;;;5074860;28;20215;-42
2022/03/08 07:24:09;;;;;;;13.20;8.00;;;3.00;99.90;;;;;;5074798;28;20543;-44
2022/03/08 07:26:35;;;;;;;15.13;8.52;;;3.20;99.90;;;;;;5074057;28;20227;-42
2022/03/08 07:29:02;;;;;;;13.10;9.32;;;3.10;99.90;;;;;;5073740;28;20204;-42
2022/03/08 07:31:30;;;;;;;12.60;8.75;;;3.00;99.90;;;;;;5073976;28;20196;-44
2022/03/08 07:33:57;;;;;;;15.10;9.95;;;3.20;99.90;;;;;;5074337;28;20210;-43
2022/03/08 07:36:24;;;;;;;10.70;9.30;;;3.50;99.90;;;;;;5073877;28;20276;-42
2022/03/08 07:38:51;;;;;;;13.25;8.80;;;3.10;99.90;;;;;;5073701;28;20202;-44
2022/03/08 07:41:18;;;;;;;13.00;9.50;;;3.20;99.90;;;;;;5073570;28;20257;-43
2022/03/08 07:43:44;;;;;;;13.93;9.20;;;3.30;99.90;;;;;;5073886;28;20243;-42
2022/03/08 07:46:11;;;;;;;12.88;9.35;;;;;;;;;;5073657;28;20270;-45
2022/03/08 07:48:39;;;;;;;12.43;9.45;;;3.20;99.90;;;;;;5073545;28;20198;-43
2022/03/08 07:51:06;;;;;;;14.95;9.27;;;3.40;99.90;;;;;;5073871;28;20676;-43
2022/03/08 07:53:33;;;;;;;11.45;8.23;;;3.30;99.90;;;;;;5073728;28;20248;-41
2022/03/08 07:56:00;;;;;;;13.98;9.57;;;3.60;99.90;;;;;;5073669;28;20223;-42
2022/03/08 07:58:28;;;;;;;12.65;8.70;;;3.40;99.90;;;;;;5073197;28;20206;-43
2022/03/08 08:00:54;;;;;;;14.40;9.23;;;3.10;99.90;;;;;;5073654;28;20202;-42
2022/03/08 08:03:21;;;;;;;15.32;8.10;;;3.60;99.90;;;;;;5073333;28;20195;-42
2022/03/08 08:05:49;;;;;;;13.40;8.63;;;3.40;99.90;;;;;;5073295;28;20227;-45
2022/03/08 08:08:15;;;;;;;12.63;7.80;;;3.80;99.90;;;;;;5073284;28;20200;-45
2022/03/08 08:10:42;;;;;;;9.05;6.80;;;3.70;99.90;;;;;;5073124;28;20195;-42
2022/03/08 08:13:08;;;;;;;8.00;5.15;;;3.90;99.90;;;;;;5073127;28;20195;-43
2022/03/08 08:15:36;;;;;;;7.72;6.00;;;3.80;99.90;;;;;;5073036;28;20268;-42
2022/03/08 08:18:03;;;;;;;7.28;5.13;;;3.80;99.90;;;;;;5073384;28;20195;-41
2022/03/08 08:20:30;;;;;;;7.55;5.80;;;3.90;99.90;;;;;;5072815;28;20234;-44
2022/03/08 08:22:58;;;;;;;9.30;6.50;;;;;;;;;;5073066;28;20202;-42
2022/03/08 08:25:25;;;;;;;7.82;6.22;;;4.20;99.90;;;;;;5072953;28;20187;-42
2022/03/08 08:27:52;;;;;;;7.82;6.20;;;4.20;99.90;;;;;;5072586;28;20426;-41
2022/03/08 08:30:18;;;;;;;14.50;7.68;;;4.20;99.90;;;;;;5072342;28;20206;-43
2022/03/08 08:32:45;;;;;;;10.40;5.80;;;;;;;;;;5072733;28;20195;-42
2022/03/08 08:35:12;;;;;;;9.00;5.95;;;;;;;;;;5073361;28;20222;-46
2022/03/08 08:37:39;;;;;;;8.40;6.10;;;4.40;99.90;;;;;;5092792;28;20195;-42
2022/03/08 08:40:08;;;;;;;9.30;7.07;;;4.50;99.90;;;;;;5088085;28;20195;-43
2022/03/08 08:42:35;;;;;;;9.48;6.20;;;4.40;99.90;;;;;;5072488;28;20207;-44
2022/03/08 08:45:02;;;;;;;10.80;5.80;;;4.60;99.90;;;;;;5072751;28;20191;-42
2022/03/08 08:47:29;;;;;;;9.50;6.25;;;4.50;99.90;;;;;;5072289;28;20254;-44
2022/03/08 08:49:55;;;;;;;8.68;6.63;;;4.40;99.90;;;;;;5072152;28;20199;-43
2022/03/08 08:52:22;;;;;;;9.90;6.20;;;4.50;99.90;;;;;;5072456;28;20683;-42
2022/03/08 08:54:49;;;;;;;8.25;6.10;;;4.60;99.90;;;;;;5072303;28;20227;-45
2022/03/08 08:57:17;;;;;;;8.65;6.05;;;4.60;99.90;;;;;;5072463;28;20695;-43
2022/03/08 08:59:43;;;;;;;11.25;5.78;;;4.50;99.90;;;;;;5070734;28;20231;-43
2022/03/08 09:02:10;;;;;;;10.60;6.97;;;4.80;99.90;;;;;;5072438;28;20203;-43
2022/03/08 09:04:37;;;;;;;16.85;6.55;;;4.60;99.90;;;;;;5072463;28;20195;-43
2022/03/08 09:07:04;;;;;;;8.90;5.97;;;5.10;99.90;;;;;;5072388;28;20234;-44
2022/03/08 09:09:31;;;;;;;8.48;7.53;;;4.60;99.90;;;;;;5071755;28;20199;-43
2022/03/08 09:11:57;;;;;;;10.60;7.30;;;4.70;99.90;;;;;;5071984;28;20227;-43
2022/03/08 09:14:25;;;;;;;9.82;6.75;;;5.00;99.90;;;;;;5071928;28;20207;-43
2022/03/08 09:16:52;;;;;;;10.48;6.53;;;5.20;99.90;;;;;;5071903;28;20227;-43
2022/03/08 09:19:19;;;;;;;9.05;6.80;;;5.00;99.90;;;;;;5071521;28;20234;-43
2022/03/08 09:21:45;;;;;;;8.48;6.68;;;5.50;99.90;;;;;;5071915;28;20676;-45
2022/03/08 09:24:12;;;;;;;10.30;7.20;;;5.00;99.90;;;;;;5071916;28;20199;-44
2022/03/08 09:26:38;;;;;;;10.60;8.02;;;5.10;99.90;;;;;;5071558;28;20207;-42
2022/03/08 09:29:05;;;;;;;14.07;7.53;;;5.00;99.90;;;;;;5071432;28;20280;-43
2022/03/08 09:31:33;;;;;;;10.57;7.70;;;5.50;99.90;;;;;;5071818;28;20197;-44
2022/03/08 09:34:00;;;;;;;12.18;6.72;;;5.30;99.90;;;;;;5071881;28;20196;-44
2022/03/08 09:36:26;;;;;;;8.13;6.35;;;5.50;99.90;;;;;;5071447;28;20226;-44
2022/03/08 09:38:53;;;;;;;10.80;6.82;;;5.50;99.90;;;;;;5071519;28;20206;-43
2022/03/08 09:41:21;;;;;;;11.65;7.03;;;5.40;99.90;;;;;;5071527;28;20200;-42
2022/03/08 09:43:48;;;;;;;11.80;6.28;;;5.50;99.90;;;;;;5071761;28;20676;-45
2022/03/08 09:46:15;;;;;;;12.88;6.50;;;5.50;99.90;;;;;;5071620;28;20207;-42
2022/03/08 09:48:44;;;;;;;7.20;5.82;;;5.40;99.90;;;;;;5071047;28;20664;-43
2022/03/08 09:51:11;;;;;;;8.60;5.10;;;5.60;99.90;;;;;;5071633;28;20218;-43
2022/03/08 09:53:38;;;;;;;7.60;5.55;;;;;;;;;;5073670;28;20218;-45
2022/03/08 09:56:05;;;;;;;7.80;5.07;;;5.40;99.40;;;;;;5075404;28;20219;-43
2022/03/08 09:58:33;;;;;;;7.77;4.87;;;;;;;;;;5075499;28;20427;-45
2022/03/08 10:01:01;;;;;;;6.93;4.00;;;5.80;99.00;;;;;;5075263;28;20941;-43
2022/03/08 10:03:35;;;;;;;7.20;5.03;;;5.80;99.30;;;;;;5075539;28;21018;-43
2022/03/08 10:06:04;;;;;;;7.78;4.72;;;5.90;98.90;;;;;;5075303;28;20472;-42
2022/03/08 10:08:32;;;;;;;5.50;4.25;;;5.80;98.90;;;;;;5075298;28;20211;-43
2022/03/08 10:11:00;;;;;;;6.97;4.37;;;5.80;98.70;;;;;;5075362;28;20619;-44
2022/03/08 10:13:29;;;;;;;5.67;4.60;;;5.70;98.60;;;;;;5073719;28;20453;-43
2022/03/08 10:16:11;;;;;;;7.07;3.90;;;6.10;98.50;;;;;;5074920;28;20478;-42
2022/03/08 10:18:40;;;;;;;5.80;3.57;;;6.00;97.30;;;;;;5074662;28;20433;-42
2022/03/08 10:21:26;;;;;;;8.17;3.83;;;5.90;97.30;;;;;;5075064;28;20434;-44
2022/03/08 10:23:53;;;;;;;5.30;3.60;;;6.10;96.80;;;;;;5075207;28;20429;-42
2022/03/08 10:26:20;;;;;;;3.60;2.57;;;;;;;;;;5074984;28;20885;-44
2022/03/08 10:28:49;;;;;;;5.00;3.17;;;6.10;96.50;;;;;;5075014;28;20429;-45
2022/03/08 10:31:17;;;;;;;5.85;3.90;;;6.00;96.20;;;;;;5074987;28;20909;-43
2022/03/08 10:33:45;;;;;;;5.10;3.10;;;6.00;95.70;;;;;;5074765;28;20198;-42
2022/03/08 10:36:15;;;;;;;4.77;2.90;;;6.20;95.60;;;;;;5074555;28;20844;-43
2022/03/08 10:38:57;;;;;;;4.23;3.30;;;6.40;95.80;;;;;;5074460;28;20491;-42
2022/03/08 10:41:24;;;;;;;6.40;3.30;;;6.40;95.60;;;;;;5074399;28;21005;-43
2022/03/08 10:43:51;;;;;;;4.93;3.63;;;6.40;95.40;;;;;;5074690;28;20827;-43
2022/03/08 10:46:18;;;;;;;5.70;4.20;;;6.10;95.20;;;;;;5074473;28;20495;-45
2022/03/08 10:48:47;;;;;;;6.80;4.60;;;6.50;95.60;;;;;;5074332;28;20431;-44
2022/03/08 10:51:16;;;;;;;5.53;3.07;;;6.20;95.00;;;;;;5074459;28;20435;-41
2022/03/08 10:53:43;;;;;;;7.07;3.40;;;6.60;94.80;;;;;;5074142;28;20437;-43
2022/03/08 10:56:10;;;;;;;5.67;3.80;;;;;;;;;;5074184;28;20485;-43
2022/03/08 10:58:49;;;;;;;5.63;3.80;;;6.40;94.80;;;;;;5074247;28;20788;-42
2022/03/08 11:01:15;;;;;;;4.23;3.17;;;6.70;94.60;;;;;;5074490;28;20439;-43
2022/03/08 11:03:55;;;;;;;4.20;3.03;;;6.40;94.40;;;;;;5074079;28;20442;-44
2022/03/08 11:06:24;;;;;;;6.40;3.43;;;6.60;94.20;;;;;;5095269;23;20852;-46
2022/03/08 11:08:52;;;;;;;4.30;3.20;;;6.60;94.30;;;;;;5074288;28;20636;-46
2022/03/08 11:11:21;;;;;;;4.27;3.27;;;6.70;94.20;;;;;;5075611;28;20491;-46
2022/03/08 11:13:50;;;;;;;6.63;3.27;;;6.60;94.00;;;;;;5056483;28;20454;-46
2022/03/08 11:16:18;;;;;;;5.83;4.10;;;6.90;93.90;;;;;;5074455;28;20896;-45
2022/03/08 11:18:46;;;;;;;5.90;3.60;;;;;;;;;;5074863;28;20488;-47
2022/03/08 11:21:14;;;;;;;3.97;3.20;;;7.10;93.80;;;;;;5074912;28;20445;-46
2022/03/08 11:23:43;;;;;;;3.43;2.80;;;;;;;;;;5075270;28;20898;-46
2022/03/08 11:26:11;;;;;;;8.07;3.27;;;;;;;;;;5073987;28;20459;-45
2022/03/08 11:28:39;;;;;;;3.83;2.60;;;7.00;93.30;;;;;;5073328;28;20434;-46
2022/03/08 11:31:06;;;;;;;7.60;3.63;;;;;;;;;;5073064;28;20439;-46
2022/03/08 11:33:39;;;;;;;4.77;2.90;;;;;;;;;;5072101;28;20515;-47
2022/03/08 11:36:13;;;;;;;4.90;2.90;;;7.20;92.60;;;;;;5073602;28;20471;-46
2022/03/08 11:38:42;;;;;;;6.30;3.20;;;7.40;92.90;;;;;;5072629;28;20780;-45
2022/03/08 11:41:08;;;;;;;5.40;2.97;;;7.00;92.10;;;;;;5073094;28;20439;-47
2022/03/08 11:43:40;;;;;;;4.80;3.07;;;7.20;91.90;;;;;;5073333;28;20471;-47
2022/03/08 11:46:11;;;;;;;5.77;3.00;;;7.20;92.20;;;;;;5073376;28;20509;-48
2022/03/08 11:48:50;;;;;;;7.50;3.43;;;7.20;91.40;;;;;;5073085;28;20546;-46
2022/03/08 11:51:17;;;;;;;3.60;2.53;;;7.40;91.70;;;;;;5072853;28;20949;-47
2022/03/08 11:53:47;;;;;;;5.00;2.83;;;7.30;91.80;;;;;;5072634;28;21003;-46
2022/03/08 11:56:16;;;;;;;5.63;2.90;;;7.60;91.90;;;;;;5072661;28;20562;-47
2022/03/08 11:58:45;;;;;;;3.80;2.57;;;7.20;91.40;;;;;;5072303;28;20433;-46
2022/03/08 12:01:22;;;;;;;4.43;2.50;;;7.40;91.00;;;;;;5072689;28;20443;-45
2022/03/08 12:03:54;;;;;;;3.53;2.77;;;7.20;91.00;;;;;;5072903;28;20512;-48
2022/03/08 12:06:30;;;;;;;3.57;2.30;;;7.30;90.80;;;;;;5072782;28;20449;-46
2022/03/08 12:09:07;;;;;;;4.83;3.37;;;7.40;89.80;;;;;;5072724;28;20919;-47
2022/03/08 12:11:36;;;;;;;4.43;2.77;;;7.30;90.20;;;;;;5072723;28;20547;-47
2022/03/08 12:14:09;;;;;;;8.30;4.50;;;7.60;90.50;;;;;;5072502;28;20426;-47
2022/03/08 12:16:39;;;;;;;4.90;2.50;;;7.70;90.30;;;;;;5071103;28;20948;-46
2022/03/08 12:19:07;;;;;;;3.97;2.70;;;;;;;;;;5071466;28;20436;-47
2022/03/08 12:21:37;;;;;;;3.53;2.40;;;7.70;88.60;;;;;;5072448;28;20845;-48
2022/03/08 12:24:11;;;;;;;3.63;2.23;;;7.80;88.40;;;;;;5072597;28;20824;-46
2022/03/08 12:26:39;;;;;;;3.10;2.20;;;7.70;87.70;;;;;;5072234;28;20464;-47
2022/03/08 12:29:08;;;;;;;4.40;2.20;;;;;;;;;;5071567;28;20519;-47
2022/03/08 12:31:35;;;;;;;5.30;3.33;;;;;;;;;;5072135;28;20446;-48
2022/03/08 12:34:03;;;;;;;2.83;2.13;;;8.00;87.40;;;;;;5073053;28;20443;-46
2022/03/08 12:36:30;;;;;;;4.43;2.37;;;8.00;86.90;;;;;;5072671;28;20488;-46
2022/03/08 12:38:56;;;;;;;5.33;2.63;;;7.90;86.70;;;;;;5072057;28;20424;-48
2022/03/08 12:41:26;;;;;;;3.20;2.63;;;8.00;86.90;;;;;;5070301;28;20835;-49
2022/03/08 12:44:00;;;;;;;3.97;2.43;;;;;;;;;;5072292;28;20802;-47
2022/03/08 12:46:27;;;;;;;4.97;2.63;;;8.10;87.20;;;;;;5071959;28;20466;-48
2022/03/08 12:48:54;;;;;;;4.33;2.47;;;8.10;85.70;;;;;;5071930;28;20491;-46
2022/03/08 12:51:22;;;;;;;3.23;2.70;;;8.20;85.70;;;;;;5072399;28;20432;-47
2022/03/08 12:53:56;;;;;;;4.03;2.50;;;8.40;86.20;;;;;;5071910;28;20556;-48
2022/03/08 12:56:27;;;;;;;3.17;2.23;;;7.90;85.70;;;;;;5071501;28;20509;-46
2022/03/08 12:59:03;;;;;;;2.80;2.30;;;8.10;85.70;;;;;;5071898;28;20456;-47
2022/03/08 13:01:30;;;;;;;10.17;6.13;;;8.00;85.40;;;;;;5072520;28;20439;-46
2022/03/08 13:03:57;;;;;;;7.47;5.97;;;8.30;85.50;;;;;;5072140;28;20442;-46
2022/03/08 13:06:25;;;;;;;5.20;3.67;;;8.20;83.30;;;;;;5071387;28;20460;-46